sensor_id;sensor_type;location;lat;lon;timestamp;P1;durP1;ratioP1;P2;durP2;ratioP2
58926;SDS011;44712;52.530;9.760;2022-07-22T00:01:04;16.13;;;12.43;;
58926;SDS011;44712;52.530;9.760;2022-07-22T00:03:31;18.30;;;12.45;;
58926;SDS011;44712;52.530;9.760;2022-07-22T00:05:57;16.40;;;12.32;;
58926;SDS011;44712;52.530;9.760;2022-07-22T00:08:25;18.00;;;12.63;;
58926;SDS011;44712;52.530;9.760;2022-07-22T00:10:52;18.35;;;13.02;;
58926;SDS011;44712;52.530;9.760;2022-07-22T00:13:18;17.67;;;12.77;;
58926;SDS011;44712;52.530;9.760;2022-07-22T00:15:45;18.77;;;13.07;;
58926;SDS011;44712;52.530;9.760;2022-07-22T00:18:12;19.13;;;13.82;;
58926;SDS011;44712;52.530;9.760;2022-07-22T00:20:39;20.63;;;14.60;;
58926;SDS011;44712;52.530;9.760;2022-07-22T00:23:05;19.92;;;15.13;;
58926;SDS011;44712;52.530;9.760;2022-07-22T00:25:35;20.83;;;14.20;;
58926;SDS011;44712;52.530;9.760;2022-07-22T00:28:01;18.67;;;14.27;;
58926;SDS011;44712;52.530;9.760;2022-07-22T00:30:28;19.85;;;13.65;;
58926;SDS011;44712;52.530;9.760;2022-07-22T00:32:57;19.33;;;13.63;;
58926;SDS011;44712;52.530;9.760;2022-07-22T00:35:24;20.60;;;14.50;;
58926;SDS011;44712;52.530;9.760;2022-07-22T00:37:53;19.00;;;13.02;;
58926;SDS011;44712;52.530;9.760;2022-07-22T00:40:19;19.17;;;13.57;;
58926;SDS011;44712;52.530;9.760;2022-07-22T00:42:46;19.20;;;14.25;;
58926;SDS011;44712;52.530;9.760;2022-07-22T00:45:13;21.10;;;13.85;;
58926;SDS011;44712;52.530;9.760;2022-07-22T00:47:41;19.55;;;13.63;;
58926;SDS011;44712;52.530;9.760;2022-07-22T00:50:08;19.70;;;14.18;;
58926;SDS011;44712;52.530;9.760;2022-07-22T00:52:35;17.05;;;12.95;;
58926;SDS011;44712;52.530;9.760;2022-07-22T00:55:03;21.90;;;14.52;;
58926;SDS011;44712;52.530;9.760;2022-07-22T00:57:32;21.27;;;14.20;;
58926;SDS011;44712;52.530;9.760;2022-07-22T00:59:59;16.95;;;12.68;;
58926;SDS011;44712;52.530;9.760;2022-07-22T01:02:27;20.30;;;14.20;;
58926;SDS011;44712;52.530;9.760;2022-07-22T01:04:53;20.92;;;14.60;;
58926;SDS011;44712;52.530;9.760;2022-07-22T01:07:20;19.08;;;13.80;;
58926;SDS011;44712;52.530;9.760;2022-07-22T01:09:49;16.77;;;12.68;;
58926;SDS011;44712;52.530;9.760;2022-07-22T01:12:15;20.73;;;14.38;;
58926;SDS011;44712;52.530;9.760;2022-07-22T01:14:42;20.85;;;14.60;;
58926;SDS011;44712;52.530;9.760;2022-07-22T01:17:10;17.95;;;14.05;;
58926;SDS011;44712;52.530;9.760;2022-07-22T01:19:37;20.83;;;14.38;;
58926;SDS011;44712;52.530;9.760;2022-07-22T01:22:04;19.38;;;14.60;;
58926;SDS011;44712;52.530;9.760;2022-07-22T01:24:31;18.60;;;14.80;;
58926;SDS011;44712;52.530;9.760;2022-07-22T01:27:00;21.98;;;14.55;;
58926;SDS011;44712;52.530;9.760;2022-07-22T01:29:27;20.80;;;15.02;;
58926;SDS011;44712;52.530;9.760;2022-07-22T01:31:55;26.25;;;16.02;;
58926;SDS011;44712;52.530;9.760;2022-07-22T01:34:22;20.48;;;14.35;;
58926;SDS011;44712;52.530;9.760;2022-07-22T01:36:51;19.58;;;14.82;;
58926;SDS011;44712;52.530;9.760;2022-07-22T01:39:18;20.10;;;13.35;;
58926;SDS011;44712;52.530;9.760;2022-07-22T01:41:45;21.95;;;13.75;;
58926;SDS011;44712;52.530;9.760;2022-07-22T01:44:12;19.30;;;14.60;;
58926;SDS011;44712;52.530;9.760;2022-07-22T01:46:39;21.77;;;15.77;;
58926;SDS011;44712;52.530;9.760;2022-07-22T01:49:06;21.85;;;15.15;;
58926;SDS011;44712;52.530;9.760;2022-07-22T01:51:37;21.65;;;15.65;;
58926;SDS011;44712;52.530;9.760;2022-07-22T01:54:03;22.30;;;16.02;;
58926;SDS011;44712;52.530;9.760;2022-07-22T01:56:31;17.95;;;14.32;;
58926;SDS011;44712;52.530;9.760;2022-07-22T01:58:58;22.67;;;15.38;;
58926;SDS011;44712;52.530;9.760;2022-07-22T02:01:27;19.08;;;12.95;;
58926;SDS011;44712;52.530;9.760;2022-07-22T02:03:54;13.25;;;10.38;;
58926;SDS011;44712;52.530;9.760;2022-07-22T02:06:21;13.63;;;8.65;;
58926;SDS011;44712;52.530;9.760;2022-07-22T02:08:49;11.85;;;7.22;;
58926;SDS011;44712;52.530;9.760;2022-07-22T02:11:23;8.45;;;6.20;;
58926;SDS011;44712;52.530;9.760;2022-07-22T02:14:00;9.68;;;5.25;;
58926;SDS011;44712;52.530;9.760;2022-07-22T02:16:28;12.52;;;5.53;;
58926;SDS011;44712;52.530;9.760;2022-07-22T02:18:55;9.05;;;5.38;;
58926;SDS011;44712;52.530;9.760;2022-07-22T02:21:23;13.93;;;8.65;;
58926;SDS011;44712;52.530;9.760;2022-07-22T02:23:56;18.35;;;10.10;;
58926;SDS011;44712;52.530;9.760;2022-07-22T02:26:22;19.20;;;10.63;;
58926;SDS011;44712;52.530;9.760;2022-07-22T02:28:49;18.35;;;10.55;;
58926;SDS011;44712;52.530;9.760;2022-07-22T02:31:16;17.48;;;9.05;;
58926;SDS011;44712;52.530;9.760;2022-07-22T02:33:43;17.33;;;9.85;;
58926;SDS011;44712;52.530;9.760;2022-07-22T02:36:10;18.60;;;10.32;;
58926;SDS011;44712;52.530;9.760;2022-07-22T02:38:38;18.25;;;10.35;;
58926;SDS011;44712;52.530;9.760;2022-07-22T02:41:05;23.88;;;10.43;;
58926;SDS011;44712;52.530;9.760;2022-07-22T02:43:34;20.88;;;10.32;;
58926;SDS011;44712;52.530;9.760;2022-07-22T02:46:00;19.92;;;10.80;;
58926;SDS011;44712;52.530;9.760;2022-07-22T02:48:28;19.48;;;9.90;;
58926;SDS011;44712;52.530;9.760;2022-07-22T02:50:55;16.67;;;10.00;;
58926;SDS011;44712;52.530;9.760;2022-07-22T02:53:24;13.85;;;7.53;;
58926;SDS011;44712;52.530;9.760;2022-07-22T02:55:51;12.25;;;6.50;;
58926;SDS011;44712;52.530;9.760;2022-07-22T02:58:19;9.57;;;6.03;;
58926;SDS011;44712;52.530;9.760;2022-07-22T03:00:46;9.43;;;5.18;;
58926;SDS011;44712;52.530;9.760;2022-07-22T03:03:12;9.35;;;5.30;;
58926;SDS011;44712;52.530;9.760;2022-07-22T03:05:40;10.40;;;5.45;;
58926;SDS011;44712;52.530;9.760;2022-07-22T03:08:21;7.82;;;4.78;;
58926;SDS011;44712;52.530;9.760;2022-07-22T03:10:47;8.93;;;4.35;;
58926;SDS011;44712;52.530;9.760;2022-07-22T03:13:18;7.78;;;4.30;;
58926;SDS011;44712;52.530;9.760;2022-07-22T03:15:45;7.28;;;3.40;;
58926;SDS011;44712;52.530;9.760;2022-07-22T03:18:12;6.13;;;3.80;;
58926;SDS011;44712;52.530;9.760;2022-07-22T03:20:40;5.32;;;3.58;;
58926;SDS011;44712;52.530;9.760;2022-07-22T03:23:06;7.57;;;3.75;;
58926;SDS011;44712;52.530;9.760;2022-07-22T03:25:33;5.47;;;3.78;;
58926;SDS011;44712;52.530;9.760;2022-07-22T03:28:03;7.13;;;3.55;;
58926;SDS011;44712;52.530;9.760;2022-07-22T03:30:30;6.50;;;4.05;;
58926;SDS011;44712;52.530;9.760;2022-07-22T03:32:58;5.78;;;3.80;;
58926;SDS011;44712;52.530;9.760;2022-07-22T03:35:28;5.35;;;3.80;;
58926;SDS011;44712;52.530;9.760;2022-07-22T03:37:56;7.68;;;3.83;;
58926;SDS011;44712;52.530;9.760;2022-07-22T03:40:26;7.18;;;3.85;;
58926;SDS011;44712;52.530;9.760;2022-07-22T03:42:53;6.25;;;3.78;;
58926;SDS011;44712;52.530;9.760;2022-07-22T03:45:20;5.53;;;4.30;;
58926;SDS011;44712;52.530;9.760;2022-07-22T03:47:47;5.85;;;3.78;;
58926;SDS011;44712;52.530;9.760;2022-07-22T03:50:15;7.40;;;4.22;;
58926;SDS011;44712;52.530;9.760;2022-07-22T03:52:43;7.75;;;4.60;;
58926;SDS011;44712;52.530;9.760;2022-07-22T03:55:10;9.45;;;4.15;;
58926;SDS011;44712;52.530;9.760;2022-07-22T03:57:37;9.07;;;4.47;;
58926;SDS011;44712;52.530;9.760;2022-07-22T04:00:13;7.05;;;3.92;;
58926;SDS011;44712;52.530;9.760;2022-07-22T04:02:41;5.97;;;3.80;;
58926;SDS011;44712;52.530;9.760;2022-07-22T04:05:14;8.27;;;4.70;;
58926;SDS011;44712;52.530;9.760;2022-07-22T04:07:42;5.68;;;3.30;;
58926;SDS011;44712;52.530;9.760;2022-07-22T04:10:09;5.85;;;3.22;;
58926;SDS011;44712;52.530;9.760;2022-07-22T04:12:39;7.07;;;3.78;;
58926;SDS011;44712;52.530;9.760;2022-07-22T04:15:30;8.43;;;3.90;;
58926;SDS011;44712;52.530;9.760;2022-07-22T04:17:57;5.50;;;3.38;;
58926;SDS011;44712;52.530;9.760;2022-07-22T04:20:26;4.70;;;3.30;;
58926;SDS011;44712;52.530;9.760;2022-07-22T04:23:22;5.50;;;3.55;;
58926;SDS011;44712;52.530;9.760;2022-07-22T04:25:57;7.00;;;3.35;;
58926;SDS011;44712;52.530;9.760;2022-07-22T04:28:24;4.60;;;3.20;;
58926;SDS011;44712;52.530;9.760;2022-07-22T04:30:50;5.10;;;3.53;;
58926;SDS011;44712;52.530;9.760;2022-07-22T04:33:19;5.55;;;3.60;;
58926;SDS011;44712;52.530;9.760;2022-07-22T04:35:46;7.45;;;3.42;;
58926;SDS011;44712;52.530;9.760;2022-07-22T04:38:17;7.88;;;3.97;;
58926;SDS011;44712;52.530;9.760;2022-07-22T04:40:55;4.50;;;3.03;;
58926;SDS011;44712;52.530;9.760;2022-07-22T04:43:23;6.28;;;3.35;;
58926;SDS011;44712;52.530;9.760;2022-07-22T04:45:50;4.57;;;2.80;;
58926;SDS011;44712;52.530;9.760;2022-07-22T04:48:18;7.40;;;3.40;;
58926;SDS011;44712;52.530;9.760;2022-07-22T04:50:49;6.13;;;3.65;;
58926;SDS011;44712;52.530;9.760;2022-07-22T04:53:15;8.43;;;3.33;;
58926;SDS011;44712;52.530;9.760;2022-07-22T04:55:47;4.85;;;3.05;;
58926;SDS011;44712;52.530;9.760;2022-07-22T04:58:14;6.00;;;3.55;;
58926;SDS011;44712;52.530;9.760;2022-07-22T05:00:46;7.57;;;4.03;;
58926;SDS011;44712;52.530;9.760;2022-07-22T05:03:14;7.68;;;3.75;;
58926;SDS011;44712;52.530;9.760;2022-07-22T05:05:43;8.95;;;4.65;;
58926;SDS011;44712;52.530;9.760;2022-07-22T05:08:10;8.63;;;4.60;;
58926;SDS011;44712;52.530;9.760;2022-07-22T05:10:39;9.85;;;4.28;;
58926;SDS011;44712;52.530;9.760;2022-07-22T05:13:07;8.10;;;4.00;;
58926;SDS011;44712;52.530;9.760;2022-07-22T05:15:34;8.57;;;4.03;;
58926;SDS011;44712;52.530;9.760;2022-07-22T05:18:01;6.43;;;3.70;;
58926;SDS011;44712;52.530;9.760;2022-07-22T05:20:30;5.43;;;2.95;;
58926;SDS011;44712;52.530;9.760;2022-07-22T05:22:58;3.72;;;2.50;;
58926;SDS011;44712;52.530;9.760;2022-07-22T05:25:29;3.15;;;1.65;;
58926;SDS011;44712;52.530;9.760;2022-07-22T05:27:56;3.28;;;1.63;;
58926;SDS011;44712;52.530;9.760;2022-07-22T05:30:27;2.90;;;1.77;;
58926;SDS011;44712;52.530;9.760;2022-07-22T05:32:55;2.13;;;1.33;;
58926;SDS011;44712;52.530;9.760;2022-07-22T05:35:42;3.28;;;1.60;;
58926;SDS011;44712;52.530;9.760;2022-07-22T05:38:09;2.70;;;1.50;;
58926;SDS011;44712;52.530;9.760;2022-07-22T05:40:36;4.22;;;1.92;;
58926;SDS011;44712;52.530;9.760;2022-07-22T05:43:03;3.10;;;1.75;;
58926;SDS011;44712;52.530;9.760;2022-07-22T05:45:31;2.85;;;1.90;;
58926;SDS011;44712;52.530;9.760;2022-07-22T05:47:58;3.70;;;1.85;;
58926;SDS011;44712;52.530;9.760;2022-07-22T05:50:24;4.63;;;1.98;;
58926;SDS011;44712;52.530;9.760;2022-07-22T05:52:51;5.10;;;1.60;;
58926;SDS011;44712;52.530;9.760;2022-07-22T05:55:18;3.65;;;1.88;;
58926;SDS011;44712;52.530;9.760;2022-07-22T05:57:46;4.40;;;1.83;;
58926;SDS011;44712;52.530;9.760;2022-07-22T06:00:14;3.75;;;2.08;;
58926;SDS011;44712;52.530;9.760;2022-07-22T06:02:42;5.00;;;1.98;;
58926;SDS011;44712;52.530;9.760;2022-07-22T06:05:15;5.90;;;2.30;;
58926;SDS011;44712;52.530;9.760;2022-07-22T06:08:02;5.88;;;2.72;;
58926;SDS011;44712;52.530;9.760;2022-07-22T06:10:42;6.13;;;2.90;;
58926;SDS011;44712;52.530;9.760;2022-07-22T06:13:10;4.43;;;2.60;;
58926;SDS011;44712;52.530;9.760;2022-07-22T06:15:39;5.40;;;2.80;;
58926;SDS011;44712;52.530;9.760;2022-07-22T06:18:07;7.22;;;3.42;;
58926;SDS011;44712;52.530;9.760;2022-07-22T06:20:34;8.65;;;3.95;;
58926;SDS011;44712;52.530;9.760;2022-07-22T06:23:02;5.88;;;3.30;;
58926;SDS011;44712;52.530;9.760;2022-07-22T06:25:29;8.55;;;3.50;;
58926;SDS011;44712;52.530;9.760;2022-07-22T06:28:20;10.60;;;3.65;;
58926;SDS011;44712;52.530;9.760;2022-07-22T06:30:47;6.88;;;3.50;;
58926;SDS011;44712;52.530;9.760;2022-07-22T06:33:14;8.85;;;4.07;;
58926;SDS011;44712;52.530;9.760;2022-07-22T06:35:41;8.98;;;4.15;;
58926;SDS011;44712;52.530;9.760;2022-07-22T06:38:09;7.55;;;4.00;;
58926;SDS011;44712;52.530;9.760;2022-07-22T06:41:21;11.35;;;4.25;;
58926;SDS011;44712;52.530;9.760;2022-07-22T06:44:12;8.85;;;4.05;;
58926;SDS011;44712;52.530;9.760;2022-07-22T06:47:11;5.90;;;3.45;;
58926;SDS011;44712;52.530;9.760;2022-07-22T06:49:38;8.27;;;4.05;;
58926;SDS011;44712;52.530;9.760;2022-07-22T06:52:04;6.88;;;2.83;;
58926;SDS011;44712;52.530;9.760;2022-07-22T06:54:32;7.32;;;3.10;;
58926;SDS011;44712;52.530;9.760;2022-07-22T06:57:00;8.18;;;3.50;;
58926;SDS011;44712;52.530;9.760;2022-07-22T06:59:31;6.68;;;3.35;;
58926;SDS011;44712;52.530;9.760;2022-07-22T07:01:59;7.97;;;3.53;;
58926;SDS011;44712;52.530;9.760;2022-07-22T07:04:28;7.15;;;3.20;;
58926;SDS011;44712;52.530;9.760;2022-07-22T07:06:57;9.80;;;3.30;;
58926;SDS011;44712;52.530;9.760;2022-07-22T07:09:30;9.00;;;3.42;;
58926;SDS011;44712;52.530;9.760;2022-07-22T07:12:06;7.32;;;3.13;;
58926;SDS011;44712;52.530;9.760;2022-07-22T07:14:52;9.27;;;3.30;;
58926;SDS011;44712;52.530;9.760;2022-07-22T07:17:38;8.65;;;3.75;;
58926;SDS011;44712;52.530;9.760;2022-07-22T07:20:08;8.32;;;3.88;;
58926;SDS011;44712;52.530;9.760;2022-07-22T07:22:36;13.32;;;4.05;;
58926;SDS011;44712;52.530;9.760;2022-07-22T07:25:04;8.38;;;3.85;;
58926;SDS011;44712;52.530;9.760;2022-07-22T07:27:51;7.35;;;3.58;;
58926;SDS011;44712;52.530;9.760;2022-07-22T07:30:24;7.20;;;3.92;;
58926;SDS011;44712;52.530;9.760;2022-07-22T07:32:51;9.85;;;4.10;;
58926;SDS011;44712;52.530;9.760;2022-07-22T07:35:19;11.10;;;3.88;;
58926;SDS011;44712;52.530;9.760;2022-07-22T07:37:46;8.73;;;3.60;;
58926;SDS011;44712;52.530;9.760;2022-07-22T07:40:12;11.73;;;3.97;;
58926;SDS011;44712;52.530;9.760;2022-07-22T07:42:40;7.75;;;3.92;;
58926;SDS011;44712;52.530;9.760;2022-07-22T07:45:15;10.30;;;4.43;;
58926;SDS011;44712;52.530;9.760;2022-07-22T07:47:47;6.70;;;3.85;;
58926;SDS011;44712;52.530;9.760;2022-07-22T07:50:16;9.85;;;4.50;;
58926;SDS011;44712;52.530;9.760;2022-07-22T07:52:44;9.38;;;4.15;;
58926;SDS011;44712;52.530;9.760;2022-07-22T07:55:19;8.77;;;3.55;;
58926;SDS011;44712;52.530;9.760;2022-07-22T07:57:47;7.93;;;4.00;;
58926;SDS011;44712;52.530;9.760;2022-07-22T08:00:20;7.25;;;4.00;;
58926;SDS011;44712;52.530;9.760;2022-07-22T08:02:51;6.32;;;3.95;;
58926;SDS011;44712;52.530;9.760;2022-07-22T08:05:19;8.48;;;4.55;;
58926;SDS011;44712;52.530;9.760;2022-07-22T08:07:48;8.57;;;4.70;;
58926;SDS011;44712;52.530;9.760;2022-07-22T08:10:16;6.78;;;4.22;;
58926;SDS011;44712;52.530;9.760;2022-07-22T08:13:22;8.73;;;3.80;;
58926;SDS011;44712;52.530;9.760;2022-07-22T08:16:23;8.05;;;3.30;;
58926;SDS011;44712;52.530;9.760;2022-07-22T08:18:51;7.38;;;2.90;;
58926;SDS011;44712;52.530;9.760;2022-07-22T08:21:19;6.70;;;3.22;;
58926;SDS011;44712;52.530;9.760;2022-07-22T08:23:51;9.48;;;3.92;;
58926;SDS011;44712;52.530;9.760;2022-07-22T08:26:19;7.47;;;3.65;;
58926;SDS011;44712;52.530;9.760;2022-07-22T08:28:46;7.72;;;3.53;;
58926;SDS011;44712;52.530;9.760;2022-07-22T08:31:13;12.18;;;4.18;;
58926;SDS011;44712;52.530;9.760;2022-07-22T08:33:42;10.90;;;4.28;;
58926;SDS011;44712;52.530;9.760;2022-07-22T08:36:09;14.98;;;4.68;;
58926;SDS011;44712;52.530;9.760;2022-07-22T08:38:36;8.32;;;3.75;;
58926;SDS011;44712;52.530;9.760;2022-07-22T08:41:03;8.60;;;4.00;;
58926;SDS011;44712;52.530;9.760;2022-07-22T08:43:34;10.00;;;4.60;;
58926;SDS011;44712;52.530;9.760;2022-07-22T08:46:03;9.10;;;4.65;;
58926;SDS011;44712;52.530;9.760;2022-07-22T08:48:51;9.43;;;4.45;;
58926;SDS011;44712;52.530;9.760;2022-07-22T08:51:41;12.00;;;4.57;;
58926;SDS011;44712;52.530;9.760;2022-07-22T08:54:21;10.07;;;4.60;;
58926;SDS011;44712;52.530;9.760;2022-07-22T08:56:49;11.65;;;4.30;;
58926;SDS011;44712;52.530;9.760;2022-07-22T08:59:17;11.73;;;4.95;;
58926;SDS011;44712;52.530;9.760;2022-07-22T09:07:25;8.00;;;4.30;;
58926;SDS011;44712;52.530;9.760;2022-07-22T09:10:01;9.95;;;4.18;;
58926;SDS011;44712;52.530;9.760;2022-07-22T09:13:02;7.65;;;3.80;;
58926;SDS011;44712;52.530;9.760;2022-07-22T09:15:48;10.32;;;4.55;;
58926;SDS011;44712;52.530;9.760;2022-07-22T09:18:46;15.07;;;4.63;;
58926;SDS011;44712;52.530;9.760;2022-07-22T09:21:34;10.80;;;4.47;;
58926;SDS011;44712;52.530;9.760;2022-07-22T09:27:22;11.70;;;4.78;;
58926;SDS011;44712;52.530;9.760;2022-07-22T09:30:20;9.15;;;4.47;;
58926;SDS011;44712;52.530;9.760;2022-07-22T09:32:54;11.75;;;4.40;;
58926;SDS011;44712;52.530;9.760;2022-07-22T09:35:41;10.43;;;4.43;;
58926;SDS011;44712;52.530;9.760;2022-07-22T09:38:15;7.78;;;3.80;;
58926;SDS011;44712;52.530;9.760;2022-07-22T09:40:47;9.48;;;3.97;;
58926;SDS011;44712;52.530;9.760;2022-07-22T09:43:16;7.13;;;4.10;;
58926;SDS011;44712;52.530;9.760;2022-07-22T09:45:47;6.38;;;4.05;;
58926;SDS011;44712;52.530;9.760;2022-07-22T09:48:27;11.05;;;4.63;;
58926;SDS011;44712;52.530;9.760;2022-07-22T09:50:54;9.77;;;4.60;;
58926;SDS011;44712;52.530;9.760;2022-07-22T09:53:35;7.45;;;4.00;;
58926;SDS011;44712;52.530;9.760;2022-07-22T09:56:05;6.85;;;4.07;;
58926;SDS011;44712;52.530;9.760;2022-07-22T09:58:33;9.25;;;4.38;;
58926;SDS011;44712;52.530;9.760;2022-07-22T10:01:04;6.78;;;3.75;;
58926;SDS011;44712;52.530;9.760;2022-07-22T10:03:33;7.55;;;4.32;;
58926;SDS011;44712;52.530;9.760;2022-07-22T10:06:04;6.13;;;4.47;;
58926;SDS011;44712;52.530;9.760;2022-07-22T10:08:33;9.80;;;4.40;;
58926;SDS011;44712;52.530;9.760;2022-07-22T10:11:02;8.73;;;4.43;;
58926;SDS011;44712;52.530;9.760;2022-07-22T10:13:30;9.98;;;4.93;;
58926;SDS011;44712;52.530;9.760;2022-07-22T10:15:58;7.97;;;3.92;;
58926;SDS011;44712;52.530;9.760;2022-07-22T10:18:27;8.93;;;4.60;;
58926;SDS011;44712;52.530;9.760;2022-07-22T10:21:05;10.60;;;4.00;;
58926;SDS011;44712;52.530;9.760;2022-07-22T10:23:36;8.55;;;4.30;;
58926;SDS011;44712;52.530;9.760;2022-07-22T10:26:40;7.57;;;4.20;;
58926;SDS011;44712;52.530;9.760;2022-07-22T10:29:27;10.98;;;4.90;;
58926;SDS011;44712;52.530;9.760;2022-07-22T10:35:29;6.28;;;4.00;;
58926;SDS011;44712;52.530;9.760;2022-07-22T10:45:26;6.60;;;4.30;;
58926;SDS011;44712;52.530;9.760;2022-07-22T10:47:55;9.98;;;5.13;;
58926;SDS011;44712;52.530;9.760;2022-07-22T10:50:42;7.72;;;4.30;;
58926;SDS011;44712;52.530;9.760;2022-07-22T10:53:11;10.30;;;4.45;;
58926;SDS011;44712;52.530;9.760;2022-07-22T10:56:03;10.02;;;4.90;;
58926;SDS011;44712;52.530;9.760;2022-07-22T10:58:41;7.93;;;4.25;;
58926;SDS011;44712;52.530;9.760;2022-07-22T11:01:12;11.40;;;4.60;;
58926;SDS011;44712;52.530;9.760;2022-07-22T11:03:41;10.05;;;5.15;;
58926;SDS011;44712;52.530;9.760;2022-07-22T11:06:21;10.75;;;4.95;;
58926;SDS011;44712;52.530;9.760;2022-07-22T11:08:57;9.27;;;4.85;;
58926;SDS011;44712;52.530;9.760;2022-07-22T11:11:34;9.93;;;5.53;;
58926;SDS011;44712;52.530;9.760;2022-07-22T11:14:01;9.68;;;5.97;;
58926;SDS011;44712;52.530;9.760;2022-07-22T11:16:28;8.77;;;5.88;;
58926;SDS011;44712;52.530;9.760;2022-07-22T11:18:56;8.27;;;5.63;;
58926;SDS011;44712;52.530;9.760;2022-07-22T11:21:26;16.77;;;5.88;;
58926;SDS011;44712;52.530;9.760;2022-07-22T11:23:56;9.20;;;5.50;;
58926;SDS011;44712;52.530;9.760;2022-07-22T11:29:02;7.93;;;5.90;;
58926;SDS011;44712;52.530;9.760;2022-07-22T11:31:29;7.18;;;5.55;;
58926;SDS011;44712;52.530;9.760;2022-07-22T11:34:08;9.73;;;5.47;;
58926;SDS011;44712;52.530;9.760;2022-07-22T11:36:38;8.98;;;5.68;;
58926;SDS011;44712;52.530;9.760;2022-07-22T11:39:07;8.43;;;5.25;;
58926;SDS011;44712;52.530;9.760;2022-07-22T11:41:35;10.98;;;6.05;;
58926;SDS011;44712;52.530;9.760;2022-07-22T11:44:02;11.68;;;5.40;;
58926;SDS011;44712;52.530;9.760;2022-07-22T11:46:37;13.10;;;6.30;;
58926;SDS011;44712;52.530;9.760;2022-07-22T11:49:05;7.35;;;5.47;;
58926;SDS011;44712;52.530;9.760;2022-07-22T11:51:33;7.38;;;5.28;;
58926;SDS011;44712;52.530;9.760;2022-07-22T11:54:03;8.02;;;5.20;;
58926;SDS011;44712;52.530;9.760;2022-07-22T11:56:30;9.57;;;5.05;;
58926;SDS011;44712;52.530;9.760;2022-07-22T11:58:57;8.45;;;5.10;;
58926;SDS011;44712;52.530;9.760;2022-07-22T12:01:25;10.40;;;5.43;;
58926;SDS011;44712;52.530;9.760;2022-07-22T12:03:54;9.90;;;5.68;;
58926;SDS011;44712;52.530;9.760;2022-07-22T12:06:27;12.00;;;6.30;;
58926;SDS011;44712;52.530;9.760;2022-07-22T12:09:03;10.60;;;5.53;;
58926;SDS011;44712;52.530;9.760;2022-07-22T12:11:45;9.52;;;5.65;;
58926;SDS011;44712;52.530;9.760;2022-07-22T12:14:14;10.68;;;5.20;;
58926;SDS011;44712;52.530;9.760;2022-07-22T12:16:52;9.48;;;5.80;;
58926;SDS011;44712;52.530;9.760;2022-07-22T12:19:31;9.07;;;5.93;;
58926;SDS011;44712;52.530;9.760;2022-07-22T12:22:00;13.88;;;6.72;;
58926;SDS011;44712;52.530;9.760;2022-07-22T12:24:31;16.10;;;5.97;;
58926;SDS011;44712;52.530;9.760;2022-07-22T12:27:02;9.75;;;6.28;;
58926;SDS011;44712;52.530;9.760;2022-07-22T12:32:02;10.25;;;6.05;;
58926;SDS011;44712;52.530;9.760;2022-07-22T12:34:32;10.20;;;6.82;;
58926;SDS011;44712;52.530;9.760;2022-07-22T12:39:59;9.68;;;6.78;;
58926;SDS011;44712;52.530;9.760;2022-07-22T12:42:28;8.85;;;6.43;;
58926;SDS011;44712;52.530;9.760;2022-07-22T12:47:44;14.13;;;7.05;;
58926;SDS011;44712;52.530;9.760;2022-07-22T12:50:22;12.95;;;6.47;;
58926;SDS011;44712;52.530;9.760;2022-07-22T12:53:04;9.95;;;6.32;;
58926;SDS011;44712;52.530;9.760;2022-07-22T12:55:55;12.63;;;6.75;;
58926;SDS011;44712;52.530;9.760;2022-07-22T12:58:25;10.15;;;6.13;;
58926;SDS011;44712;52.530;9.760;2022-07-22T13:00:55;10.10;;;6.20;;
58926;SDS011;44712;52.530;9.760;2022-07-22T13:03:23;10.02;;;5.97;;
58926;SDS011;44712;52.530;9.760;2022-07-22T13:05:57;12.75;;;6.28;;
58926;SDS011;44712;52.530;9.760;2022-07-22T13:08:26;8.63;;;5.90;;
58926;SDS011;44712;52.530;9.760;2022-07-22T13:11:11;8.48;;;6.10;;
58926;SDS011;44712;52.530;9.760;2022-07-22T13:13:38;11.77;;;6.15;;
58926;SDS011;44712;52.530;9.760;2022-07-22T13:16:04;9.93;;;6.18;;
58926;SDS011;44712;52.530;9.760;2022-07-22T13:18:31;8.15;;;5.80;;
58926;SDS011;44712;52.530;9.760;2022-07-22T13:20:58;9.38;;;6.28;;
58926;SDS011;44712;52.530;9.760;2022-07-22T13:23:25;13.50;;;6.63;;
58926;SDS011;44712;52.530;9.760;2022-07-22T13:25:52;7.35;;;5.18;;
58926;SDS011;44712;52.530;9.760;2022-07-22T13:28:21;10.55;;;5.57;;
58926;SDS011;44712;52.530;9.760;2022-07-22T13:30:48;10.18;;;5.90;;
58926;SDS011;44712;52.530;9.760;2022-07-22T13:33:15;10.95;;;6.05;;
58926;SDS011;44712;52.530;9.760;2022-07-22T13:35:43;10.32;;;5.55;;
58926;SDS011;44712;52.530;9.760;2022-07-22T13:38:10;8.57;;;5.82;;
58926;SDS011;44712;52.530;9.760;2022-07-22T13:40:42;11.35;;;6.72;;
58926;SDS011;44712;52.530;9.760;2022-07-22T13:43:19;10.00;;;5.55;;
58926;SDS011;44712;52.530;9.760;2022-07-22T13:45:49;7.85;;;5.25;;
58926;SDS011;44712;52.530;9.760;2022-07-22T13:48:16;8.07;;;5.25;;
58926;SDS011;44712;52.530;9.760;2022-07-22T13:50:47;11.13;;;5.88;;
58926;SDS011;44712;52.530;9.760;2022-07-22T13:53:14;10.18;;;6.07;;
58926;SDS011;44712;52.530;9.760;2022-07-22T13:55:41;10.63;;;5.90;;
58926;SDS011;44712;52.530;9.760;2022-07-22T13:58:07;7.95;;;5.43;;
58926;SDS011;44712;52.530;9.760;2022-07-22T14:00:34;7.47;;;5.30;;
58926;SDS011;44712;52.530;9.760;2022-07-22T14:03:01;7.60;;;5.40;;
58926;SDS011;44712;52.530;9.760;2022-07-22T14:05:28;9.93;;;6.38;;
58926;SDS011;44712;52.530;9.760;2022-07-22T14:07:54;9.23;;;5.45;;
58926;SDS011;44712;52.530;9.760;2022-07-22T14:10:21;8.60;;;5.25;;
58926;SDS011;44712;52.530;9.760;2022-07-22T14:12:48;7.28;;;6.07;;
58926;SDS011;44712;52.530;9.760;2022-07-22T14:15:16;8.88;;;5.55;;
58926;SDS011;44712;52.530;9.760;2022-07-22T14:17:43;9.07;;;5.60;;
58926;SDS011;44712;52.530;9.760;2022-07-22T14:20:11;10.25;;;5.65;;
58926;SDS011;44712;52.530;9.760;2022-07-22T14:22:37;10.80;;;5.55;;
58926;SDS011;44712;52.530;9.760;2022-07-22T14:25:04;7.55;;;5.30;;
58926;SDS011;44712;52.530;9.760;2022-07-22T14:27:31;11.68;;;5.93;;
58926;SDS011;44712;52.530;9.760;2022-07-22T14:29:57;6.50;;;5.13;;
58926;SDS011;44712;52.530;9.760;2022-07-22T14:32:25;7.47;;;5.05;;
58926;SDS011;44712;52.530;9.760;2022-07-22T14:34:52;9.30;;;5.85;;
58926;SDS011;44712;52.530;9.760;2022-07-22T14:37:18;9.88;;;5.80;;
58926;SDS011;44712;52.530;9.760;2022-07-22T14:39:52;8.55;;;5.38;;
58926;SDS011;44712;52.530;9.760;2022-07-22T14:42:19;9.43;;;5.68;;
58926;SDS011;44712;52.530;9.760;2022-07-22T14:44:45;7.57;;;5.22;;
58926;SDS011;44712;52.530;9.760;2022-07-22T14:47:12;7.18;;;5.00;;
58926;SDS011;44712;52.530;9.760;2022-07-22T14:49:39;8.10;;;4.97;;
58926;SDS011;44712;52.530;9.760;2022-07-22T14:52:05;8.68;;;5.72;;
58926;SDS011;44712;52.530;9.760;2022-07-22T14:54:32;8.88;;;5.20;;
58926;SDS011;44712;52.530;9.760;2022-07-22T14:56:58;7.72;;;5.30;;
58926;SDS011;44712;52.530;9.760;2022-07-22T14:59:25;8.13;;;4.68;;
58926;SDS011;44712;52.530;9.760;2022-07-22T15:01:53;8.00;;;5.65;;
58926;SDS011;44712;52.530;9.760;2022-07-22T15:04:19;8.40;;;5.68;;
58926;SDS011;44712;52.530;9.760;2022-07-22T15:06:46;10.85;;;5.35;;
58926;SDS011;44712;52.530;9.760;2022-07-22T15:09:16;10.15;;;5.68;;
58926;SDS011;44712;52.530;9.760;2022-07-22T15:11:42;8.63;;;5.38;;
58926;SDS011;44712;52.530;9.760;2022-07-22T15:14:09;9.27;;;5.40;;
58926;SDS011;44712;52.530;9.760;2022-07-22T15:16:35;6.15;;;4.88;;
58926;SDS011;44712;52.530;9.760;2022-07-22T15:19:02;9.50;;;5.70;;
58926;SDS011;44712;52.530;9.760;2022-07-22T15:21:29;7.93;;;5.03;;
58926;SDS011;44712;52.530;9.760;2022-07-22T15:23:57;8.95;;;5.55;;
58926;SDS011;44712;52.530;9.760;2022-07-22T15:26:26;9.68;;;5.75;;
58926;SDS011;44712;52.530;9.760;2022-07-22T15:28:53;11.18;;;6.25;;
58926;SDS011;44712;52.530;9.760;2022-07-22T15:31:20;9.80;;;5.70;;